createdAt,value
2022-11-15T00:01:18.086Z,62.42
2022-11-15T00:04:19.664Z,62.49
2022-11-15T00:07:48.407Z,62.52
2022-11-15T00:10:43.672Z,62.46
2022-11-15T00:13:45.179Z,62.47
2022-11-15T00:16:46.999Z,62.54
2022-11-15T00:19:48.492Z,62.60
2022-11-15T00:22:50.048Z,62.52
2022-11-15T00:25:59.037Z,62.55
2022-11-15T00:29:00.568Z,62.37
2022-11-15T00:32:02.140Z,62.75
2022-11-15T00:35:04.062Z,62.56
2022-11-15T00:38:05.615Z,62.47
2022-11-15T00:41:09.858Z,62.55
2022-11-15T00:44:11.736Z,62.50
2022-11-15T00:47:13.271Z,62.60
2022-11-15T00:50:15.550Z,62.54
2022-11-15T00:53:17.803Z,62.63
2022-11-15T00:56:19.371Z,62.48
2022-11-15T00:59:20.887Z,62.60
2022-11-15T01:02:22.421Z,62.63
2022-11-15T01:05:24.235Z,62.58
2022-11-15T01:08:26.117Z,62.60
2022-11-15T01:11:27.662Z,62.70
2022-11-15T01:14:29.186Z,62.58
2022-11-15T01:17:31.818Z,62.65
2022-11-15T01:20:33.363Z,62.65
2022-11-15T01:23:35.179Z,62.59
2022-11-15T01:26:36.824Z,62.58
2022-11-15T01:29:39.575Z,62.82
2022-11-15T01:32:41.104Z,62.71
2022-11-15T01:35:42.727Z,62.63
2022-11-15T01:38:44.288Z,62.58
2022-11-15T01:41:46.054Z,62.60
2022-11-15T01:44:52.642Z,62.53
2022-11-15T01:47:55.881Z,62.58
2022-11-15T01:50:58.215Z,62.54
2022-11-15T01:54:07.735Z,62.63
2022-11-15T01:57:12.304Z,62.55
2022-11-15T02:00:15.463Z,62.62
2022-11-15T02:03:17.511Z,62.56
2022-11-15T02:06:21.185Z,62.48
2022-11-15T02:09:22.720Z,62.57
2022-11-15T02:12:24.358Z,62.56
2022-11-15T02:15:30.839Z,62.47
2022-11-15T02:18:39.129Z,62.48
2022-11-15T02:21:46.529Z,62.53
2022-11-15T02:25:12.802Z,62.62
2022-11-15T02:28:17.034Z,62.51
2022-11-15T02:31:18.539Z,62.60
2022-11-15T02:34:29.025Z,62.57
2022-11-15T02:37:58.355Z,62.49
2022-11-15T02:41:11.951Z,62.37
2022-11-15T02:44:24.858Z,62.65
2022-11-15T02:47:31.187Z,62.63
2022-11-15T02:50:34.260Z,62.83
2022-11-15T02:53:35.950Z,62.72
2022-11-15T02:56:37.631Z,62.75
2022-11-15T03:00:08.536Z,62.79
2022-11-15T03:03:51.904Z,62.71
2022-11-15T03:07:09.168Z,62.78
2022-11-15T03:10:18.934Z,62.65
2022-11-15T03:13:44.154Z,62.66
2022-11-15T03:17:17.407Z,62.74
2022-11-15T03:20:20.318Z,62.61
2022-11-15T03:23:21.875Z,62.58
2022-11-15T03:26:25.035Z,62.69
2022-11-15T03:29:34.622Z,62.64
2022-11-15T03:32:41.251Z,62.52
2022-11-15T03:35:45.698Z,62.69
2022-11-15T03:38:47.285Z,62.63
2022-11-15T03:41:58.002Z,62.57
2022-11-15T03:45:18.989Z,62.65
2022-11-15T03:48:27.764Z,62.55
2022-11-15T03:51:30.692Z,62.61
2022-11-15T03:54:32.478Z,62.66
2022-11-15T03:57:34.055Z,62.58
2022-11-15T04:00:35.633Z,62.55
2022-11-15T04:03:37.188Z,62.68
2022-11-15T04:06:38.857Z,62.76
2022-11-15T04:10:00.359Z,62.66
2022-11-15T04:13:03.764Z,62.70
2022-11-15T04:16:05.360Z,62.68
2022-11-15T04:19:25.632Z,62.55
2022-11-15T04:22:45.426Z,62.73
2022-11-15T04:25:53.701Z,62.71
2022-11-15T04:29:13.796Z,62.79
2022-11-15T04:32:15.295Z,62.81
2022-11-15T04:35:16.835Z,62.72
2022-11-15T04:38:18.379Z,62.77
2022-11-15T04:41:19.910Z,62.69
2022-11-15T04:44:21.410Z,62.78
2022-11-15T04:47:23.024Z,62.87
2022-11-15T04:50:24.523Z,62.73
2022-11-15T04:53:26.048Z,62.74
2022-11-15T04:56:27.596Z,62.83
2022-11-15T04:59:29.134Z,62.96
2022-11-15T05:02:50.610Z,62.85
2022-11-15T05:05:52.244Z,62.84
2022-11-15T05:08:54.171Z,62.81
2022-11-15T05:11:55.699Z,62.93
2022-11-15T05:14:57.194Z,62.99
2022-11-15T05:18:00.940Z,62.88
2022-11-15T05:21:06.922Z,62.82
2022-11-15T05:24:11.140Z,62.87
2022-11-15T05:27:12.672Z,62.92
2022-11-15T05:30:14.542Z,62.94
2022-11-15T05:33:16.221Z,62.84
2022-11-15T05:36:21.228Z,62.92
2022-11-15T05:39:22.961Z,62.84
2022-11-15T05:42:27.807Z,62.93
2022-11-15T05:45:29.924Z,62.97
2022-11-15T05:48:32.483Z,63.02
2022-11-15T05:51:34.684Z,62.88
2022-11-15T05:54:37.913Z,62.92
2022-11-15T05:57:39.512Z,62.95
2022-11-15T06:00:41.195Z,62.83
2022-11-15T06:03:42.828Z,62.93
2022-11-15T06:06:44.434Z,62.94
2022-11-15T06:09:45.968Z,62.81
2022-11-15T06:12:47.561Z,63.02
2022-11-15T06:15:49.279Z,63.07
2022-11-15T06:18:50.847Z,62.95
2022-11-15T06:21:52.371Z,62.98
2022-11-15T06:24:53.897Z,62.88
2022-11-15T06:27:56.953Z,62.86
2022-11-15T06:31:11.952Z,62.64
2022-11-15T06:34:13.502Z,62.72
2022-11-15T06:37:15.057Z,62.72
2022-11-15T06:40:17.007Z,62.65
2022-11-15T06:43:18.586Z,62.67
2022-11-15T06:46:20.195Z,62.82
2022-11-15T06:49:21.744Z,62.71
2022-11-15T06:52:23.285Z,62.74
2022-11-15T06:55:24.879Z,62.62
2022-11-15T06:58:26.390Z,62.75
2022-11-15T07:01:27.974Z,62.77
2022-11-15T07:04:29.554Z,62.62
2022-11-15T07:07:31.140Z,62.76
2022-11-15T07:10:32.701Z,62.86
2022-11-15T07:13:35.872Z,62.87
2022-11-15T07:16:38.160Z,62.84
2022-11-15T07:19:39.692Z,62.88
2022-11-15T07:22:42.246Z,62.94
2022-11-15T07:25:43.809Z,62.96
2022-11-15T07:28:45.591Z,62.98
2022-11-15T07:31:47.156Z,63.02
2022-11-15T07:34:48.960Z,62.78
2022-11-15T07:38:03.607Z,62.97
2022-11-15T07:41:06.412Z,62.81
2022-11-15T07:44:07.987Z,63.07
2022-11-15T07:47:09.488Z,63.04
2022-11-15T07:50:11.040Z,62.93
2022-11-15T07:53:12.587Z,63.06
2022-11-15T07:56:14.484Z,62.94
2022-11-15T07:59:16.027Z,63.08
2022-11-15T08:02:18.863Z,63.16
2022-11-15T08:05:20.518Z,63.15
2022-11-15T08:08:23.151Z,62.95
2022-11-15T08:11:24.713Z,63.03
2022-11-15T08:14:26.309Z,63.07
2022-11-15T08:17:28.384Z,63.25
2022-11-15T08:20:31.016Z,63.21
2022-11-15T08:23:33.354Z,62.93
2022-11-15T08:26:35.031Z,63.17
2022-11-15T08:29:37.043Z,63.13
2022-11-15T08:32:38.735Z,63.20
2022-11-15T08:35:42.357Z,63.01
2022-11-15T08:38:44.338Z,63.00
2022-11-15T08:41:45.919Z,63.12
2022-11-15T08:44:47.506Z,62.99
2022-11-15T08:47:53.943Z,63.46
2022-11-15T08:50:57.336Z,63.15
2022-11-15T08:53:59.070Z,63.09
2022-11-15T08:57:00.621Z,63.10
2022-11-15T09:00:02.277Z,63.00
2022-11-15T09:03:07.524Z,62.97
2022-11-15T09:06:10.205Z,63.14
2022-11-15T09:09:11.782Z,63.16
2022-11-15T09:12:13.545Z,63.31
2022-11-15T09:15:16.669Z,63.24
2022-11-15T09:18:18.227Z,63.11
2022-11-15T09:21:19.751Z,63.26
2022-11-15T09:24:22.163Z,63.27
2022-11-15T09:27:24.153Z,63.12
2022-11-15T09:30:26.410Z,63.21
2022-11-15T09:33:28.922Z,63.24
2022-11-15T09:36:30.788Z,63.28
2022-11-15T09:39:32.348Z,63.30
2022-11-15T09:42:52.274Z,63.32
2022-11-15T09:46:17.482Z,63.17
2022-11-15T09:49:19.595Z,63.18
2022-11-15T09:52:22.860Z,63.26
2022-11-15T09:55:50.058Z,63.17
2022-11-15T09:59:09.139Z,63.00
2022-11-15T10:02:41.285Z,63.00
2022-11-15T10:05:51.530Z,63.10
2022-11-15T10:09:23.999Z,63.15
2022-11-15T10:12:28.199Z,63.37
2022-11-15T10:15:30.047Z,63.15
2022-11-15T10:18:40.511Z,63.13
2022-11-15T10:21:42.048Z,63.09
2022-11-15T10:24:45.398Z,63.08
2022-11-15T10:27:55.256Z,63.17
2022-11-15T10:31:05.624Z,63.00
2022-11-15T10:34:20.173Z,63.04
2022-11-15T10:37:32.812Z,63.06
2022-11-15T10:40:35.426Z,62.93
2022-11-15T10:43:36.976Z,62.68
2022-11-15T10:46:48.355Z,62.57
2022-11-15T10:50:29.875Z,62.73
2022-11-15T10:53:39.859Z,62.84
2022-11-15T10:56:43.431Z,62.60
2022-11-15T10:59:52.671Z,62.59
2022-11-15T11:02:58.943Z,62.79
2022-11-15T11:06:13.350Z,62.75
2022-11-15T11:09:34.694Z,62.67
2022-11-15T11:12:36.447Z,62.80
2022-11-15T11:15:38.695Z,62.77
2022-11-15T11:19:11.555Z,62.61
2022-11-15T11:22:13.070Z,62.55
2022-11-15T11:25:23.284Z,62.84
2022-11-15T11:28:51.984Z,62.56
2022-11-15T11:32:17.897Z,62.56
2022-11-15T11:35:36.810Z,62.68
2022-11-15T11:38:38.335Z,62.53
2022-11-15T11:42:04.404Z,62.32
2022-11-15T11:45:14.818Z,62.26
2022-11-15T11:48:55.509Z,62.37
2022-11-15T11:52:02.138Z,62.36
2022-11-15T11:55:06.846Z,62.44
2022-11-15T11:58:17.235Z,62.26
2022-11-15T12:01:35.539Z,62.52
2022-11-15T12:04:41.688Z,62.34
2022-11-15T12:07:46.996Z,62.52
2022-11-15T12:10:55.339Z,62.26
2022-11-15T12:14:09.228Z,62.34
2022-11-15T12:17:12.921Z,62.38
2022-11-15T12:20:30.533Z,61.93
2022-11-15T12:23:53.450Z,62.27
2022-11-15T12:27:12.797Z,62.08
2022-11-15T12:30:18.256Z,62.00
2022-11-15T12:33:34.950Z,62.23
2022-11-15T12:36:41.772Z,61.83
2022-11-15T12:40:11.359Z,62.28
2022-11-15T12:43:16.026Z,62.65
2022-11-15T12:46:40.840Z,62.27
2022-11-15T12:49:42.305Z,62.04
2022-11-15T12:53:25.459Z,62.09
2022-11-15T12:56:27.070Z,61.96
2022-11-15T12:59:50.222Z,61.99
2022-11-15T13:03:18.759Z,61.91
2022-11-15T13:06:41.870Z,61.98
2022-11-15T13:09:43.384Z,62.01
2022-11-15T13:12:44.844Z,62.02
2022-11-15T13:15:57.051Z,61.73
2022-11-15T13:19:00.385Z,61.93
2022-11-15T13:22:28.379Z,61.63
2022-11-15T13:25:54.563Z,62.19
2022-11-15T13:28:57.335Z,61.92
2022-11-15T13:31:58.918Z,61.87
2022-11-15T13:35:01.735Z,61.99
2022-11-15T13:38:05.988Z,61.74
2022-11-15T13:41:21.337Z,61.62
2022-11-15T13:44:32.158Z,61.54
2022-11-15T13:47:34.010Z,61.69
2022-11-15T13:50:39.723Z,61.70
2022-11-15T13:53:47.588Z,61.92
2022-11-15T13:56:56.902Z,61.98
2022-11-15T14:00:06.678Z,61.89
2022-11-15T14:03:15.250Z,61.65
2022-11-15T14:06:20.361Z,61.62
2022-11-15T14:09:34.173Z,61.88
2022-11-15T14:12:36.764Z,61.58
2022-11-15T14:15:39.832Z,61.61
2022-11-15T14:18:44.351Z,61.62
2022-11-15T14:22:18.573Z,61.73
2022-11-15T14:25:22.941Z,61.42
2022-11-15T14:28:24.459Z,61.57
2022-11-15T14:31:26.059Z,61.38
2022-11-15T14:34:27.606Z,61.75
2022-11-15T14:37:35.636Z,61.73
2022-11-15T14:40:37.198Z,61.84
2022-11-15T14:43:38.706Z,61.75
2022-11-15T14:46:40.318Z,61.50
2022-11-15T14:49:42.408Z,61.79
2022-11-15T14:52:44.643Z,61.67
2022-11-15T14:55:46.249Z,61.61
2022-11-15T14:58:47.837Z,61.62
2022-11-15T15:01:49.392Z,62.05
2022-11-15T15:04:51.334Z,62.10
2022-11-15T15:07:54.287Z,61.77
2022-11-15T15:10:56.031Z,61.88
2022-11-15T15:13:59.279Z,61.85
2022-11-15T15:17:00.839Z,61.71
2022-11-15T15:20:02.364Z,61.85
2022-11-15T15:23:03.914Z,61.62
2022-11-15T15:26:05.451Z,61.83
2022-11-15T15:29:07.666Z,61.49
2022-11-15T15:32:10.130Z,61.64
2022-11-15T15:35:15.369Z,61.67
2022-11-15T15:38:16.970Z,61.73
2022-11-15T15:41:18.577Z,61.87
2022-11-15T15:44:20.150Z,61.91
2022-11-15T15:47:23.603Z,61.68
2022-11-15T15:50:25.116Z,61.74
2022-11-15T15:53:26.652Z,61.56
2022-11-15T15:56:29.161Z,61.63
2022-11-15T15:59:30.788Z,61.42
2022-11-15T16:02:36.230Z,61.63
2022-11-15T16:05:41.233Z,61.62
2022-11-15T16:09:08.172Z,61.61
2022-11-15T16:12:04.343Z,61.54
2022-11-15T16:15:06.362Z,61.54
2022-11-15T16:18:13.768Z,61.51
2022-11-15T16:21:15.327Z,61.51
2022-11-15T16:24:16.885Z,61.47
2022-11-15T16:27:21.149Z,61.47
2022-11-15T16:30:24.460Z,61.49
2022-11-15T16:33:26.624Z,61.40
2022-11-15T16:36:31.229Z,61.45
2022-11-15T16:39:33.498Z,61.41
2022-11-15T16:42:35.015Z,61.58
2022-11-15T16:45:36.621Z,61.66
2022-11-15T16:48:38.221Z,61.52
2022-11-15T16:51:41.672Z,61.55
2022-11-15T16:54:43.449Z,61.45
2022-11-15T16:57:45.281Z,61.53
2022-11-15T17:00:51.667Z,61.52
2022-11-15T17:03:54.210Z,61.51
2022-11-15T17:06:56.412Z,61.59
2022-11-15T17:09:58.177Z,61.31
2022-11-15T17:12:59.749Z,61.53
2022-11-15T17:16:06.685Z,61.42
2022-11-15T17:19:19.846Z,61.44
2022-11-15T17:22:21.559Z,61.51
2022-11-15T17:25:23.165Z,61.46
2022-11-15T17:28:24.780Z,61.50
2022-11-15T17:31:27.056Z,61.58
2022-11-15T17:34:28.626Z,61.45
2022-11-15T17:37:30.148Z,61.56
2022-11-15T17:40:31.741Z,61.49
2022-11-15T17:43:34.186Z,61.52
2022-11-15T17:46:36.466Z,61.50
2022-11-15T17:49:40.792Z,61.54
2022-11-15T17:52:42.419Z,61.63
2022-11-15T17:55:43.980Z,61.59
2022-11-15T17:58:53.568Z,61.61
2022-11-15T18:01:55.251Z,61.51
2022-11-15T18:04:56.803Z,61.54
2022-11-15T18:07:58.384Z,61.51
2022-11-15T18:11:32.942Z,61.50
2022-11-15T18:14:35.238Z,61.47
2022-11-15T18:17:37.376Z,61.48
2022-11-15T18:20:38.919Z,61.51
2022-11-15T18:23:41.803Z,61.33
2022-11-15T18:26:43.387Z,61.59
2022-11-15T18:29:45.079Z,61.51
2022-11-15T18:32:46.942Z,61.57
2022-11-15T18:35:48.671Z,61.56
2022-11-15T18:38:57.984Z,61.56
2022-11-15T18:41:59.602Z,61.55
2022-11-15T18:45:01.805Z,61.51
2022-11-15T18:48:03.539Z,61.56
2022-11-15T18:51:07.193Z,61.55
2022-11-15T18:54:14.087Z,61.63
2022-11-15T18:57:15.655Z,61.47
2022-11-15T19:00:17.939Z,61.49
2022-11-15T19:03:23.731Z,61.43
2022-11-15T19:06:29.150Z,61.34
2022-11-15T19:09:32.700Z,61.45
2022-11-15T19:12:34.299Z,61.38
2022-11-15T19:15:35.835Z,61.36
2022-11-15T19:18:37.425Z,61.31
2022-11-15T19:21:39.139Z,61.31
2022-11-15T19:24:40.956Z,61.50
2022-11-15T19:27:42.484Z,61.42
2022-11-15T19:30:44.086Z,61.34
2022-11-15T19:33:46.181Z,61.39
2022-11-15T19:36:47.712Z,61.45
2022-11-15T19:39:49.568Z,61.45
2022-11-15T19:42:51.107Z,61.43
2022-11-15T19:45:58.016Z,61.47
2022-11-15T19:49:02.603Z,61.50
2022-11-15T19:52:04.446Z,61.50
2022-11-15T19:55:06.563Z,61.45
2022-11-15T19:58:08.269Z,61.49
2022-11-15T20:01:20.239Z,61.47
2022-11-15T20:04:22.292Z,61.48
2022-11-15T20:07:23.848Z,61.44
2022-11-15T20:10:25.501Z,61.49
2022-11-15T20:13:27.891Z,61.49
2022-11-15T20:16:29.800Z,61.44
2022-11-15T20:19:31.454Z,61.48
2022-11-15T20:22:33.024Z,61.54
2022-11-15T20:25:38.008Z,61.55
2022-11-15T20:28:40.457Z,61.60
2022-11-15T20:31:41.995Z,61.49
2022-11-15T20:34:43.501Z,61.54
2022-11-15T20:37:45.719Z,61.46
2022-11-15T20:40:48.756Z,61.56
2022-11-15T20:43:50.393Z,61.67
2022-11-15T20:46:51.939Z,61.51
2022-11-15T20:49:55.523Z,61.55
2022-11-15T20:52:59.867Z,61.55
2022-11-15T20:56:10.875Z,61.38
2022-11-15T20:59:12.444Z,61.44
2022-11-15T21:02:15.178Z,61.49
2022-11-15T21:05:16.960Z,61.58
2022-11-15T21:08:18.486Z,61.57
2022-11-15T21:11:39.364Z,61.45
2022-11-15T21:14:41.714Z,61.48
2022-11-15T21:17:43.287Z,61.59
2022-11-15T21:20:44.982Z,61.57
2022-11-15T21:23:46.518Z,61.59
2022-11-15T21:26:48.042Z,61.65
2022-11-15T21:29:49.646Z,61.55
2022-11-15T21:32:51.163Z,61.49
2022-11-15T21:35:56.222Z,61.46
2022-11-15T21:38:57.825Z,61.48
2022-11-15T21:41:59.360Z,61.62
2022-11-15T21:45:00.901Z,61.71
2022-11-15T21:48:02.448Z,61.58
2022-11-15T21:51:10.061Z,61.64
2022-11-15T21:54:11.632Z,61.71
2022-11-15T21:57:13.197Z,61.62
2022-11-15T22:00:34.124Z,61.57
2022-11-15T22:03:36.459Z,61.56
2022-11-15T22:06:38.482Z,61.53
2022-11-15T22:09:40.321Z,61.53
2022-11-15T22:12:41.872Z,61.59
2022-11-15T22:15:46.453Z,61.52
2022-11-15T22:18:48.209Z,61.54
2022-11-15T22:21:49.787Z,61.60
2022-11-15T22:24:51.393Z,61.54
2022-11-15T22:27:53.458Z,61.54
2022-11-15T22:30:55.532Z,61.54
2022-11-15T22:33:57.112Z,61.61
2022-11-15T22:37:19.979Z,61.46
2022-11-15T22:40:20.220Z,61.44
2022-11-15T22:43:23.676Z,61.52
2022-11-15T22:46:25.325Z,61.48
2022-11-15T22:49:27.019Z,61.45
2022-11-15T22:52:28.576Z,61.50
2022-11-15T22:55:30.136Z,61.56
2022-11-15T22:58:33.358Z,61.45
2022-11-15T23:01:35.296Z,61.48
2022-11-15T23:04:36.840Z,61.41
2022-11-15T23:07:38.589Z,61.49
2022-11-15T23:10:59.141Z,61.31
2022-11-15T23:14:00.924Z,61.46
2022-11-15T23:17:02.507Z,61.23
2022-11-15T23:20:22.335Z,61.27
2022-11-15T23:23:26.242Z,61.19
2022-11-15T23:26:27.790Z,61.20
2022-11-15T23:29:30.261Z,61.25
2022-11-15T23:33:10.374Z,61.30
2022-11-15T23:36:11.950Z,61.32
2022-11-15T23:39:13.559Z,61.55
2022-11-15T23:42:19.727Z,61.35
2022-11-15T23:45:21.826Z,61.34
2022-11-15T23:48:23.519Z,61.31
2022-11-15T23:51:25.379Z,61.29
2022-11-15T23:54:26.950Z,61.40
2022-11-15T23:57:28.562Z,61.40
